KCID/CID METAR and TAF weather

Enter ICAO airport designator
Station Type Date Time Source
KCID METAR 2018/04/20 08:52 UTC NOAA

KCID 200852Z AUTO 35006KT 10SM CLR M02/M05 A3047 RMK AO2 SLP326 T10221050 53007


Station Type Date Time Source
KCID Decoded METAR 2018/04/20 08:52 UTC NOAA

CEDAR RAPIDS AIRPORT, IA, United States (KCID) 41-53N 91-43W
Apr 20, 2018 - 04:52 AM EDT / 2018.04.20 0852 UTC
Wind: from the N (350 degrees) at 7 MPH (6 KT):0
Visibility: 10 mile(s):0
Sky conditions: clear
Temperature: 28.0 F (-2.2 C)
Windchill: 21 F (-6 C):1
Dew Point: 23.0 F (-5.0 C)
Relative Humidity: 81%
Pressure (altimeter): 30.47 in. Hg (1031 hPa)
Pressure tendency: 0.02 inches (0.7 hPa) higher than three hours ago
ob: KCID 200852Z AUTO 35006KT 10SM CLR M02/M05 A3047 RMK AO2 SLP326 T10221050 53007
cycle: 9

Station Type Date Time Source
KCID TAF 2018/04/20 06:15 UTC NOAA

TAF
AMD KCID 200612Z 2006/2106 VRB03KT P6SM SKC
FM200800 00000KT 6SM BR SKC
FM201100 00000KT 5SM BR FEW002
FM201400 09005KT P6SM SCT250


Example: see airport list